Condor Express — 9V5373 — position and weather

sailwx.info

Track history (hours):
 
Tides and Currents Weather Stations Pressure Air Temp Water Temp Dewpoint Dewpoint Depression Visibility Wind Speed Wind Dir Waves Ship Positions

Condor Express

Operator: Condor Marine Services

Last reported at 2019-Jul-05 04:36 UTC. Time now 2019-Jul-20 00:52 UTC.
Position N 38°41' E 119°05'.
Warning: this ship's position is 14 days out of date.

Length 235 m; draft 14.5 m.

Type: Cargo ship. MMSI: 563014500.

Date/timePositionNaut miles runAvg speedWind from/ knotsBaromVisibWave heightAir tempDewpointWater temp
2019-Jul-05 04:36N 38°41' E 119°05'112.1
2019-Jul-05 04:29N 38°40' E 119°07'1411.8
2019-Jul-05 03:18N 38°39' E 119°25'410.3
2019-Jul-05 02:55N 38°38' E 119°30'17 9.6
2019-Jul-05 01:08N 38°40' E 119°52'10 9.0
2019-Jul-05 00:04N 38°40' E 120°04'1 9.2
2019-Jul-05 00:00N 38°40' E 120°05'41 9.5
2019-Jul-04 19:42N 38°36' E 120°57'2 9.3
2019-Jul-04 19:30N 38°35' E 120°59'610.5
2019-Jul-04 18:53N 38°31' E 121°06'611.3
2019-Jul-04 18:22N 38°28' E 121°12'4 9.4
2019-Jul-04 17:58N 38°26' E 121°17'610.5
2019-Jul-04 17:24N 38°24' E 121°23'911.3
2019-Jul-04 16:38N 38°20' E 121°33'310.0
2019-Jul-04 16:20N 38°18' E 121°36'6 9.8
2019-Jul-04 15:45N 38°15' E 121°43'1310.2
2019-Jul-04 14:28N 38°08' E 121°56'1210.3
2019-Jul-04 13:19N 38°02' E 122°09'2911.3
2019-Jul-04 10:48N 37°48' E 122°41'411.2
2019-Jul-04 10:28N 37°46' E 122°45'611.7
2019-Jul-04 09:59N 37°43' E 122°51'510.7
2019-Jul-04 09:30N 37°40' E 122°56'611.1
2019-Jul-04 09:00N 37°38' E 123°02'611.6
2019-Jul-04 08:30N 37°35' E 123°09'610.5
2019-Jul-04 07:58N 37°32' E 123°15'611.1
2019-Jul-04 07:26N 37°28' E 123°20'7610.5
2019-Jul-04 00:12N 36°12' E 123°30'  
Track history (hours):
 
Tides and Currents Weather Stations Pressure Air Temp Water Temp Dewpoint Dewpoint Depression Visibility Wind Speed Wind Dir Waves Ship Positions

Condor Express

Operator: Condor Marine Services

Last reported at 2019-Jul-05 04:36 UTC. Time now 2019-Jul-20 00:52 UTC.
Position N 38°41' E 119°05'.
Warning: this ship's position is 14 days out of date.

Length 235 m; draft 14.5 m.

Type: Cargo ship. MMSI: 563014500.

Date/timePositionNaut miles runAvg speedWind from/ knotsBaromVisibWave heightAir tempDewpointWater temp
2019-Jul-05 04:36N 38°41' E 119°05'112.1
2019-Jul-05 04:29N 38°40' E 119°07'1411.8
2019-Jul-05 03:18N 38°39' E 119°25'410.3
2019-Jul-05 02:55N 38°38' E 119°30'17 9.6
2019-Jul-05 01:08N 38°40' E 119°52'10 9.0
2019-Jul-05 00:04N 38°40' E 120°04'1 9.2
2019-Jul-05 00:00N 38°40' E 120°05'41 9.5
2019-Jul-04 19:42N 38°36' E 120°57'2 9.3
2019-Jul-04 19:30N 38°35' E 120°59'610.5
2019-Jul-04 18:53N 38°31' E 121°06'611.3
2019-Jul-04 18:22N 38°28' E 121°12'4 9.4
2019-Jul-04 17:58N 38°26' E 121°17'610.5
2019-Jul-04 17:24N 38°24' E 121°23'911.3
2019-Jul-04 16:38N 38°20' E 121°33'310.0
2019-Jul-04 16:20N 38°18' E 121°36'6 9.8
2019-Jul-04 15:45N 38°15' E 121°43'1310.2
2019-Jul-04 14:28N 38°08' E 121°56'1210.3
2019-Jul-04 13:19N 38°02' E 122°09'2911.3
2019-Jul-04 10:48N 37°48' E 122°41'411.2
2019-Jul-04 10:28N 37°46' E 122°45'611.7
2019-Jul-04 09:59N 37°43' E 122°51'510.7
2019-Jul-04 09:30N 37°40' E 122°56'611.1
2019-Jul-04 09:00N 37°38' E 123°02'611.6
2019-Jul-04 08:30N 37°35' E 123°09'610.5
2019-Jul-04 07:58N 37°32' E 123°15'611.1
2019-Jul-04 07:26N 37°28' E 123°20'7610.5
2019-Jul-04 00:12N 36°12' E 123°30'  

Dump ship's entire track history